sensor_id;sensor_type;location;lat;lon;timestamp;temperature;humidity
7876;DHT22;69649;53.712;9.680;2023-08-24T00:00:39;17.60;72.90
7876;DHT22;69649;53.712;9.680;2023-08-24T00:03:05;17.60;73.00
7876;DHT22;69649;53.712;9.680;2023-08-24T00:05:40;17.60;73.20
7876;DHT22;69649;53.712;9.680;2023-08-24T00:08:04;17.50;73.10
7876;DHT22;69649;53.712;9.680;2023-08-24T00:10:30;17.50;73.00
7876;DHT22;69649;53.712;9.680;2023-08-24T00:12:56;17.50;72.90
7876;DHT22;69649;53.712;9.680;2023-08-24T00:15:22;17.40;73.00
7876;DHT22;69649;53.712;9.680;2023-08-24T00:17:48;17.30;73.00
7876;DHT22;69649;53.712;9.680;2023-08-24T00:20:14;17.30;73.10
7876;DHT22;69649;53.712;9.680;2023-08-24T00:22:40;17.20;73.20
7876;DHT22;69649;53.712;9.680;2023-08-24T00:25:07;17.20;73.10
7876;DHT22;69649;53.712;9.680;2023-08-24T00:27:33;17.20;73.00
7876;DHT22;69649;53.712;9.680;2023-08-24T00:29:59;17.20;73.00
7876;DHT22;69649;53.712;9.680;2023-08-24T00:32:25;17.10;73.00
7876;DHT22;69649;53.712;9.680;2023-08-24T00:34:51;17.10;73.00
7876;DHT22;69649;53.712;9.680;2023-08-24T00:37:17;17.00;72.90
7876;DHT22;69649;53.712;9.680;2023-08-24T00:39:43;17.00;72.90
7876;DHT22;69649;53.712;9.680;2023-08-24T00:42:08;17.00;72.90
7876;DHT22;69649;53.712;9.680;2023-08-24T00:44:36;17.00;73.00
7876;DHT22;69649;53.712;9.680;2023-08-24T00:47:02;17.00;73.30
7876;DHT22;69649;53.712;9.680;2023-08-24T00:49:27;16.90;73.40
7876;DHT22;69649;53.712;9.680;2023-08-24T00:51:53;16.90;73.20
7876;DHT22;69649;53.712;9.680;2023-08-24T00:54:20;16.90;73.00
7876;DHT22;69649;53.712;9.680;2023-08-24T00:56:45;16.80;73.00
7876;DHT22;69649;53.712;9.680;2023-08-24T00:59:11;16.80;73.00
7876;DHT22;69649;53.712;9.680;2023-08-24T01:01:39;16.70;73.00
7876;DHT22;69649;53.712;9.680;2023-08-24T01:04:06;16.70;73.20
7876;DHT22;69649;53.712;9.680;2023-08-24T01:06:33;16.70;73.20
7876;DHT22;69649;53.712;9.680;2023-08-24T01:08:58;16.70;73.10
7876;DHT22;69649;53.712;9.680;2023-08-24T01:16:43;16.50;72.90
7876;DHT22;69649;53.712;9.680;2023-08-24T01:19:18;16.50;73.20
7876;DHT22;69649;53.712;9.680;2023-08-24T01:21:39;16.40;73.20
7876;DHT22;69649;53.712;9.680;2023-08-24T01:24:25;16.40;73.10
7876;DHT22;69649;53.712;9.680;2023-08-24T01:26:48;16.40;73.00
7876;DHT22;69649;53.712;9.680;2023-08-24T01:29:14;16.30;72.90
7876;DHT22;69649;53.712;9.680;2023-08-24T01:31:41;16.20;72.80
7876;DHT22;69649;53.712;9.680;2023-08-24T01:34:06;16.20;72.70
7876;DHT22;69649;53.712;9.680;2023-08-24T01:36:32;16.10;72.80
7876;DHT22;69649;53.712;9.680;2023-08-24T01:39:07;16.10;72.90
7876;DHT22;69649;53.712;9.680;2023-08-24T01:41:37;16.10;72.70
7876;DHT22;69649;53.712;9.680;2023-08-24T01:44:06;16.10;72.70
7876;DHT22;69649;53.712;9.680;2023-08-24T01:46:34;16.00;72.60
7876;DHT22;69649;53.712;9.680;2023-08-24T01:49:01;16.00;72.60
7876;DHT22;69649;53.712;9.680;2023-08-24T01:51:28;15.90;72.60
7876;DHT22;69649;53.712;9.680;2023-08-24T01:53:54;15.90;72.50
7876;DHT22;69649;53.712;9.680;2023-08-24T01:56:20;15.80;72.50
7876;DHT22;69649;53.712;9.680;2023-08-24T01:58:45;15.80;72.70
7876;DHT22;69649;53.712;9.680;2023-08-24T02:01:11;15.80;72.70
7876;DHT22;69649;53.712;9.680;2023-08-24T02:03:38;15.70;72.90
7876;DHT22;69649;53.712;9.680;2023-08-24T02:06:06;15.60;73.20
7876;DHT22;69649;53.712;9.680;2023-08-24T02:08:32;15.60;73.20
7876;DHT22;69649;53.712;9.680;2023-08-24T02:10:58;15.60;73.00
7876;DHT22;69649;53.712;9.680;2023-08-24T02:13:24;15.60;73.00
7876;DHT22;69649;53.712;9.680;2023-08-24T02:15:50;15.60;72.80
7876;DHT22;69649;53.712;9.680;2023-08-24T02:18:16;15.50;73.00
7876;DHT22;69649;53.712;9.680;2023-08-24T02:20:42;15.50;73.00
7876;DHT22;69649;53.712;9.680;2023-08-24T02:23:07;15.50;73.10
7876;DHT22;69649;53.712;9.680;2023-08-24T02:25:33;15.50;73.20
7876;DHT22;69649;53.712;9.680;2023-08-24T02:27:59;15.40;73.40
7876;DHT22;69649;53.712;9.680;2023-08-24T02:30:25;15.40;73.30
7876;DHT22;69649;53.712;9.680;2023-08-24T02:32:51;15.40;73.40
7876;DHT22;69649;53.712;9.680;2023-08-24T02:35:17;15.40;73.50
7876;DHT22;69649;53.712;9.680;2023-08-24T02:37:44;15.40;73.40
7876;DHT22;69649;53.712;9.680;2023-08-24T02:40:10;15.40;73.40
7876;DHT22;69649;53.712;9.680;2023-08-24T02:42:37;15.30;73.30
7876;DHT22;69649;53.712;9.680;2023-08-24T02:45:03;15.30;73.60
7876;DHT22;69649;53.712;9.680;2023-08-24T02:47:29;15.30;73.50
7876;DHT22;69649;53.712;9.680;2023-08-24T02:49:55;15.30;72.70
7876;DHT22;69649;53.712;9.680;2023-08-24T02:52:21;15.30;72.80
7876;DHT22;69649;53.712;9.680;2023-08-24T02:54:46;15.30;72.60
7876;DHT22;69649;53.712;9.680;2023-08-24T02:57:12;15.30;72.70
7876;DHT22;69649;53.712;9.680;2023-08-24T02:59:38;15.30;73.00
7876;DHT22;69649;53.712;9.680;2023-08-24T03:02:04;15.30;73.50
7876;DHT22;69649;53.712;9.680;2023-08-24T03:04:30;15.30;73.30
7876;DHT22;69649;53.712;9.680;2023-08-24T03:06:56;15.30;73.50
7876;DHT22;69649;53.712;9.680;2023-08-24T03:09:22;15.30;73.00
7876;DHT22;69649;53.712;9.680;2023-08-24T03:11:48;15.30;72.40
7876;DHT22;69649;53.712;9.680;2023-08-24T03:14:14;15.30;72.60
7876;DHT22;69649;53.712;9.680;2023-08-24T03:16:40;15.30;73.20
7876;DHT22;69649;53.712;9.680;2023-08-24T03:19:06;15.30;73.10
7876;DHT22;69649;53.712;9.680;2023-08-24T03:21:32;15.20;73.50
7876;DHT22;69649;53.712;9.680;2023-08-24T03:23:58;15.20;73.30
7876;DHT22;69649;53.712;9.680;2023-08-24T03:26:23;15.20;73.20
7876;DHT22;69649;53.712;9.680;2023-08-24T03:28:49;15.20;72.70
7876;DHT22;69649;53.712;9.680;2023-08-24T03:31:16;15.20;72.80
7876;DHT22;69649;53.712;9.680;2023-08-24T03:33:42;15.10;72.50
7876;DHT22;69649;53.712;9.680;2023-08-24T03:36:07;15.10;72.70
7876;DHT22;69649;53.712;9.680;2023-08-24T03:38:33;15.10;72.60
7876;DHT22;69649;53.712;9.680;2023-08-24T03:41:00;15.10;73.00
7876;DHT22;69649;53.712;9.680;2023-08-24T03:43:26;15.00;72.20
7876;DHT22;69649;53.712;9.680;2023-08-24T03:45:52;15.00;71.70
7876;DHT22;69649;53.712;9.680;2023-08-24T03:48:18;15.00;71.90
7876;DHT22;69649;53.712;9.680;2023-08-24T03:50:43;15.00;72.60
7876;DHT22;69649;53.712;9.680;2023-08-24T03:53:09;15.00;73.60
7876;DHT22;69649;53.712;9.680;2023-08-24T03:55:35;15.00;73.30
7876;DHT22;69649;53.712;9.680;2023-08-24T03:58:01;15.00;72.70
7876;DHT22;69649;53.712;9.680;2023-08-24T04:00:27;15.00;73.20
7876;DHT22;69649;53.712;9.680;2023-08-24T04:02:52;15.00;73.20
7876;DHT22;69649;53.712;9.680;2023-08-24T04:05:18;14.90;73.60
7876;DHT22;69649;53.712;9.680;2023-08-24T04:07:44;14.90;73.50
7876;DHT22;69649;53.712;9.680;2023-08-24T04:10:11;14.90;73.20
7876;DHT22;69649;53.712;9.680;2023-08-24T04:12:37;14.90;73.00
7876;DHT22;69649;53.712;9.680;2023-08-24T04:15:03;14.80;72.30
7876;DHT22;69649;53.712;9.680;2023-08-24T04:17:30;14.80;72.40
7876;DHT22;69649;53.712;9.680;2023-08-24T04:19:56;14.80;73.30
7876;DHT22;69649;53.712;9.680;2023-08-24T04:22:22;14.80;73.60
7876;DHT22;69649;53.712;9.680;2023-08-24T04:24:47;14.80;73.20
7876;DHT22;69649;53.712;9.680;2023-08-24T04:27:14;14.80;75.30
7876;DHT22;69649;53.712;9.680;2023-08-24T04:29:40;14.80;74.10
7876;DHT22;69649;53.712;9.680;2023-08-24T04:32:06;14.80;72.60
7876;DHT22;69649;53.712;9.680;2023-08-24T04:34:31;14.80;73.20
7876;DHT22;69649;53.712;9.680;2023-08-24T04:36:57;14.80;73.50
7876;DHT22;69649;53.712;9.680;2023-08-24T04:39:23;14.70;72.40
7876;DHT22;69649;53.712;9.680;2023-08-24T04:41:50;14.70;72.50
7876;DHT22;69649;53.712;9.680;2023-08-24T04:44:16;14.70;72.60
7876;DHT22;69649;53.712;9.680;2023-08-24T04:46:41;14.70;72.10
7876;DHT22;69649;53.712;9.680;2023-08-24T04:49:27;14.70;72.90
7876;DHT22;69649;53.712;9.680;2023-08-24T04:51:54;14.70;72.90
7876;DHT22;69649;53.712;9.680;2023-08-24T04:54:19;14.70;72.20
7876;DHT22;69649;53.712;9.680;2023-08-24T04:56:45;14.60;72.20
7876;DHT22;69649;53.712;9.680;2023-08-24T04:59:11;14.60;72.40
7876;DHT22;69649;53.712;9.680;2023-08-24T05:01:37;14.50;72.80
7876;DHT22;69649;53.712;9.680;2023-08-24T05:04:03;14.50;72.60
7876;DHT22;69649;53.712;9.680;2023-08-24T05:06:28;14.50;73.00
7876;DHT22;69649;53.712;9.680;2023-08-24T05:08:54;14.60;73.00
7876;DHT22;69649;53.712;9.680;2023-08-24T05:11:22;14.60;72.40
7876;DHT22;69649;53.712;9.680;2023-08-24T05:13:50;14.60;73.00
7876;DHT22;69649;53.712;9.680;2023-08-24T05:16:16;14.60;72.50
7876;DHT22;69649;53.712;9.680;2023-08-24T05:18:42;14.70;71.80
7876;DHT22;69649;53.712;9.680;2023-08-24T05:21:08;14.70;71.10
7876;DHT22;69649;53.712;9.680;2023-08-24T05:23:34;14.70;70.70
7876;DHT22;69649;53.712;9.680;2023-08-24T05:26:01;14.80;71.00
7876;DHT22;69649;53.712;9.680;2023-08-24T05:28:29;14.80;71.50
7876;DHT22;69649;53.712;9.680;2023-08-24T05:30:55;14.80;72.80
7876;DHT22;69649;53.712;9.680;2023-08-24T05:33:22;14.80;74.10
7876;DHT22;69649;53.712;9.680;2023-08-24T05:35:49;14.80;74.00
7876;DHT22;69649;53.712;9.680;2023-08-24T05:38:17;14.80;72.90
7876;DHT22;69649;53.712;9.680;2023-08-24T05:40:43;15.00;72.40
7876;DHT22;69649;53.712;9.680;2023-08-24T05:43:09;15.00;71.70
7876;DHT22;69649;53.712;9.680;2023-08-24T05:45:36;15.30;70.70
7876;DHT22;69649;53.712;9.680;2023-08-24T05:48:02;15.40;72.10
7876;DHT22;69649;53.712;9.680;2023-08-24T05:50:28;15.60;70.60
7876;DHT22;69649;53.712;9.680;2023-08-24T05:52:54;15.80;69.70
7876;DHT22;69649;53.712;9.680;2023-08-24T05:55:20;16.00;71.80
7876;DHT22;69649;53.712;9.680;2023-08-24T05:57:46;16.10;71.50
7876;DHT22;69649;53.712;9.680;2023-08-24T06:00:12;16.20;71.00
7876;DHT22;69649;53.712;9.680;2023-08-24T06:02:39;16.40;69.60
7876;DHT22;69649;53.712;9.680;2023-08-24T06:05:06;16.50;69.30
7876;DHT22;69649;53.712;9.680;2023-08-24T06:07:33;16.70;69.40
7876;DHT22;69649;53.712;9.680;2023-08-24T06:09:59;16.80;69.00
7876;DHT22;69649;53.712;9.680;2023-08-24T06:12:25;17.00;71.70
7876;DHT22;69649;53.712;9.680;2023-08-24T06:14:51;17.20;73.20
7876;DHT22;69649;53.712;9.680;2023-08-24T06:17:16;17.50;73.10
7876;DHT22;69649;53.712;9.680;2023-08-24T06:19:42;17.60;72.70
7876;DHT22;69649;53.712;9.680;2023-08-24T06:22:08;17.80;71.20
7876;DHT22;69649;53.712;9.680;2023-08-24T06:24:35;18.00;73.10
7876;DHT22;69649;53.712;9.680;2023-08-24T06:27:00;18.10;73.30
7876;DHT22;69649;53.712;9.680;2023-08-24T06:29:28;18.10;71.10
7876;DHT22;69649;53.712;9.680;2023-08-24T06:31:54;18.10;71.90
7876;DHT22;69649;53.712;9.680;2023-08-24T06:34:21;18.00;72.60
7876;DHT22;69649;53.712;9.680;2023-08-24T06:36:47;17.80;73.20
7876;DHT22;69649;53.712;9.680;2023-08-24T06:39:13;17.80;73.90
7876;DHT22;69649;53.712;9.680;2023-08-24T06:41:39;18.10;73.40
7876;DHT22;69649;53.712;9.680;2023-08-24T06:44:05;18.30;72.80
7876;DHT22;69649;53.712;9.680;2023-08-24T06:46:31;18.50;72.00
7876;DHT22;69649;53.712;9.680;2023-08-24T06:48:57;18.60;71.30
7876;DHT22;69649;53.712;9.680;2023-08-24T06:51:24;18.70;71.30
7876;DHT22;69649;53.712;9.680;2023-08-24T06:53:50;18.90;71.60
7876;DHT22;69649;53.712;9.680;2023-08-24T06:56:16;19.10;70.60
7876;DHT22;69649;53.712;9.680;2023-08-24T06:58:43;19.20;69.90
7876;DHT22;69649;53.712;9.680;2023-08-24T07:01:09;19.30;69.40
7876;DHT22;69649;53.712;9.680;2023-08-24T07:03:37;19.50;69.00
7876;DHT22;69649;53.712;9.680;2023-08-24T07:06:07;19.50;69.40
7876;DHT22;69649;53.712;9.680;2023-08-24T07:08:34;19.70;69.90
7876;DHT22;69649;53.712;9.680;2023-08-24T07:11:01;19.90;68.50
7876;DHT22;69649;53.712;9.680;2023-08-24T07:13:27;20.00;67.20
7876;DHT22;69649;53.712;9.680;2023-08-24T07:15:53;20.10;68.50
7876;DHT22;69649;53.712;9.680;2023-08-24T07:18:20;20.30;66.90
7876;DHT22;69649;53.712;9.680;2023-08-24T07:20:47;20.30;67.10
7876;DHT22;69649;53.712;9.680;2023-08-24T07:23:12;20.50;67.00
7876;DHT22;69649;53.712;9.680;2023-08-24T07:25:38;20.60;67.10
7876;DHT22;69649;53.712;9.680;2023-08-24T07:28:04;20.70;66.60
7876;DHT22;69649;53.712;9.680;2023-08-24T07:30:31;20.80;66.70
7876;DHT22;69649;53.712;9.680;2023-08-24T07:32:57;20.80;65.30
7876;DHT22;69649;53.712;9.680;2023-08-24T07:35:23;20.90;65.20
7876;DHT22;69649;53.712;9.680;2023-08-24T07:37:52;21.00;65.70
7876;DHT22;69649;53.712;9.680;2023-08-24T07:40:19;21.10;63.90
7876;DHT22;69649;53.712;9.680;2023-08-24T07:42:46;21.30;64.00
7876;DHT22;69649;53.712;9.680;2023-08-24T07:45:12;21.50;64.30
7876;DHT22;69649;53.712;9.680;2023-08-24T07:47:39;21.60;63.20
7876;DHT22;69649;53.712;9.680;2023-08-24T07:50:07;21.70;62.70
7876;DHT22;69649;53.712;9.680;2023-08-24T07:52:33;21.90;63.70
7876;DHT22;69649;53.712;9.680;2023-08-24T07:54:59;22.00;63.40
7876;DHT22;69649;53.712;9.680;2023-08-24T07:57:27;22.00;62.70
7876;DHT22;69649;53.712;9.680;2023-08-24T07:59:52;22.00;60.70
7876;DHT22;69649;53.712;9.680;2023-08-24T08:02:18;22.00;61.90
7876;DHT22;69649;53.712;9.680;2023-08-24T08:04:44;22.00;60.50
7876;DHT22;69649;53.712;9.680;2023-08-24T08:07:10;22.20;60.40
7876;DHT22;69649;53.712;9.680;2023-08-24T08:09:38;22.20;60.00
7876;DHT22;69649;53.712;9.680;2023-08-24T08:12:04;22.00;59.70
7876;DHT22;69649;53.712;9.680;2023-08-24T08:14:30;22.00;59.60
7876;DHT22;69649;53.712;9.680;2023-08-24T08:16:56;22.10;60.60
7876;DHT22;69649;53.712;9.680;2023-08-24T08:19:22;22.20;60.10
7876;DHT22;69649;53.712;9.680;2023-08-24T08:21:50;22.20;58.30
7876;DHT22;69649;53.712;9.680;2023-08-24T08:24:16;22.20;58.90
7876;DHT22;69649;53.712;9.680;2023-08-24T08:26:42;22.20;58.00
7876;DHT22;69649;53.712;9.680;2023-08-24T08:29:08;22.40;58.00
7876;DHT22;69649;53.712;9.680;2023-08-24T08:31:34;22.30;56.80
7876;DHT22;69649;53.712;9.680;2023-08-24T08:34:00;22.50;55.50
7876;DHT22;69649;53.712;9.680;2023-08-24T08:36:26;22.20;55.50
7876;DHT22;69649;53.712;9.680;2023-08-24T08:38:52;22.00;55.80
7876;DHT22;69649;53.712;9.680;2023-08-24T08:41:21;22.10;55.60
7876;DHT22;69649;53.712;9.680;2023-08-24T08:43:48;22.20;56.80
7876;DHT22;69649;53.712;9.680;2023-08-24T08:46:14;22.50;57.20
7876;DHT22;69649;53.712;9.680;2023-08-24T08:48:42;22.30;57.20
7876;DHT22;69649;53.712;9.680;2023-08-24T08:51:09;22.20;56.40
7876;DHT22;69649;53.712;9.680;2023-08-24T08:53:36;22.50;57.20
7876;DHT22;69649;53.712;9.680;2023-08-24T08:56:03;22.70;57.00
7876;DHT22;69649;53.712;9.680;2023-08-24T08:58:31;22.90;56.70
7876;DHT22;69649;53.712;9.680;2023-08-24T09:00:57;23.20;57.60
7876;DHT22;69649;53.712;9.680;2023-08-24T09:03:26;23.30;55.60
7876;DHT22;69649;53.712;9.680;2023-08-24T09:05:52;23.50;57.60
7876;DHT22;69649;53.712;9.680;2023-08-24T09:08:18;23.70;57.20
7876;DHT22;69649;53.712;9.680;2023-08-24T09:10:45;24.00;56.60
7876;DHT22;69649;53.712;9.680;2023-08-24T09:13:11;24.00;53.00
7876;DHT22;69649;53.712;9.680;2023-08-24T09:15:37;23.50;54.50
7876;DHT22;69649;53.712;9.680;2023-08-24T09:18:04;23.30;55.30
7876;DHT22;69649;53.712;9.680;2023-08-24T09:20:30;23.10;54.90
7876;DHT22;69649;53.712;9.680;2023-08-24T09:22:56;23.30;56.20
7876;DHT22;69649;53.712;9.680;2023-08-24T09:25:24;23.60;55.40
7876;DHT22;69649;53.712;9.680;2023-08-24T09:28:00;23.60;53.10
7876;DHT22;69649;53.712;9.680;2023-08-24T09:30:31;23.60;54.80
7876;DHT22;69649;53.712;9.680;2023-08-24T09:33:04;23.50;53.50
7876;DHT22;69649;53.712;9.680;2023-08-24T09:35:34;23.50;55.00
7876;DHT22;69649;53.712;9.680;2023-08-24T09:38:00;23.50;53.40
7876;DHT22;69649;53.712;9.680;2023-08-24T09:40:27;23.40;55.90
7876;DHT22;69649;53.712;9.680;2023-08-24T09:42:53;23.50;54.10
7876;DHT22;69649;53.712;9.680;2023-08-24T09:45:18;23.50;55.80
7876;DHT22;69649;53.712;9.680;2023-08-24T09:47:45;23.50;53.20
7876;DHT22;69649;53.712;9.680;2023-08-24T09:50:12;23.60;52.50
7876;DHT22;69649;53.712;9.680;2023-08-24T09:52:39;23.70;52.50
7876;DHT22;69649;53.712;9.680;2023-08-24T09:55:07;23.90;52.70
7876;DHT22;69649;53.712;9.680;2023-08-24T09:57:36;24.00;53.40
7876;DHT22;69649;53.712;9.680;2023-08-24T10:00:08;24.10;54.20
7876;DHT22;69649;53.712;9.680;2023-08-24T10:05:17;24.20;51.90
7876;DHT22;69649;53.712;9.680;2023-08-24T10:07:52;24.10;52.40
7876;DHT22;69649;53.712;9.680;2023-08-24T10:10:19;24.10;53.70
7876;DHT22;69649;53.712;9.680;2023-08-24T10:12:48;24.30;53.80
7876;DHT22;69649;53.712;9.680;2023-08-24T10:15:15;24.70;54.30
7876;DHT22;69649;53.712;9.680;2023-08-24T10:17:44;24.90;50.90
7876;DHT22;69649;53.712;9.680;2023-08-24T10:20:10;24.90;51.90
7876;DHT22;69649;53.712;9.680;2023-08-24T10:22:37;25.10;51.00
7876;DHT22;69649;53.712;9.680;2023-08-24T10:25:07;25.40;50.90
7876;DHT22;69649;53.712;9.680;2023-08-24T10:27:35;25.40;51.90
7876;DHT22;69649;53.712;9.680;2023-08-24T10:30:02;25.30;52.80
7876;DHT22;69649;53.712;9.680;2023-08-24T10:32:28;25.40;53.60
7876;DHT22;69649;53.712;9.680;2023-08-24T10:34:54;25.40;52.50
7876;DHT22;69649;53.712;9.680;2023-08-24T10:37:27;25.40;52.00
7876;DHT22;69649;53.712;9.680;2023-08-24T10:39:53;25.50;52.60
7876;DHT22;69649;53.712;9.680;2023-08-24T10:42:20;25.60;52.80
7876;DHT22;69649;53.712;9.680;2023-08-24T10:44:48;25.80;51.90
7876;DHT22;69649;53.712;9.680;2023-08-24T10:47:20;25.70;53.10
7876;DHT22;69649;53.712;9.680;2023-08-24T10:52:38;25.80;54.40
7876;DHT22;69649;53.712;9.680;2023-08-24T10:55:22;25.80;52.20
7876;DHT22;69649;53.712;9.680;2023-08-24T10:57:59;25.80;53.70
7876;DHT22;69649;53.712;9.680;2023-08-24T11:00:27;26.00;53.30
7876;DHT22;69649;53.712;9.680;2023-08-24T11:02:54;26.10;53.30
7876;DHT22;69649;53.712;9.680;2023-08-24T11:08:00;26.40;52.00
7876;DHT22;69649;53.712;9.680;2023-08-24T11:13:13;26.20;51.90
7876;DHT22;69649;53.712;9.680;2023-08-24T11:15:42;26.40;52.50
7876;DHT22;69649;53.712;9.680;2023-08-24T11:21:00;26.60;51.00
7876;DHT22;69649;53.712;9.680;2023-08-24T11:23:24;26.60;51.40
7876;DHT22;69649;53.712;9.680;2023-08-24T11:25:52;26.70;52.80
7876;DHT22;69649;53.712;9.680;2023-08-24T11:28:24;26.90;53.70
7876;DHT22;69649;53.712;9.680;2023-08-24T11:30:51;26.90;50.50
7876;DHT22;69649;53.712;9.680;2023-08-24T11:35:58;27.00;52.30
7876;DHT22;69649;53.712;9.680;2023-08-24T11:38:24;27.20;50.90
7876;DHT22;69649;53.712;9.680;2023-08-24T11:40:50;27.10;52.90
7876;DHT22;69649;53.712;9.680;2023-08-24T11:43:27;27.30;52.80
7876;DHT22;69649;53.712;9.680;2023-08-24T11:45:54;27.50;52.60
7876;DHT22;69649;53.712;9.680;2023-08-24T11:48:26;27.70;51.80
7876;DHT22;69649;53.712;9.680;2023-08-24T11:50:53;27.70;50.00
7876;DHT22;69649;53.712;9.680;2023-08-24T11:53:20;27.70;50.00
7876;DHT22;69649;53.712;9.680;2023-08-24T11:55:48;27.60;50.20
7876;DHT22;69649;53.712;9.680;2023-08-24T11:58:17;27.70;49.20
7876;DHT22;69649;53.712;9.680;2023-08-24T12:00:43;27.50;49.20
7876;DHT22;69649;53.712;9.680;2023-08-24T12:03:09;27.50;47.90
7876;DHT22;69649;53.712;9.680;2023-08-24T12:05:35;27.70;49.40
7876;DHT22;69649;53.712;9.680;2023-08-24T12:08:01;27.50;49.40
7876;DHT22;69649;53.712;9.680;2023-08-24T12:10:28;27.50;48.90
7876;DHT22;69649;53.712;9.680;2023-08-24T12:13:06;27.30;48.00
7876;DHT22;69649;53.712;9.680;2023-08-24T12:15:36;27.10;49.10
7876;DHT22;69649;53.712;9.680;2023-08-24T12:18:12;27.30;49.30
7876;DHT22;69649;53.712;9.680;2023-08-24T12:20:40;27.20;48.60
7876;DHT22;69649;53.712;9.680;2023-08-24T12:23:07;27.30;51.20
7876;DHT22;69649;53.712;9.680;2023-08-24T12:25:37;27.40;48.30
7876;DHT22;69649;53.712;9.680;2023-08-24T12:28:11;27.30;49.40
7876;DHT22;69649;53.712;9.680;2023-08-24T12:30:52;27.30;49.80
7876;DHT22;69649;53.712;9.680;2023-08-24T12:33:28;27.40;49.70
7876;DHT22;69649;53.712;9.680;2023-08-24T12:35:52;27.50;49.60
7876;DHT22;69649;53.712;9.680;2023-08-24T12:38:17;27.70;49.70
7876;DHT22;69649;53.712;9.680;2023-08-24T12:40:43;27.70;49.00
7876;DHT22;69649;53.712;9.680;2023-08-24T12:43:09;27.80;48.50
7876;DHT22;69649;53.712;9.680;2023-08-24T12:45:35;27.90;49.40
7876;DHT22;69649;53.712;9.680;2023-08-24T12:48:03;27.80;49.30
7876;DHT22;69649;53.712;9.680;2023-08-24T12:50:30;27.70;48.90
7876;DHT22;69649;53.712;9.680;2023-08-24T12:52:55;27.80;49.70
7876;DHT22;69649;53.712;9.680;2023-08-24T12:55:23;28.00;49.50
7876;DHT22;69649;53.712;9.680;2023-08-24T12:57:49;28.10;48.50
7876;DHT22;69649;53.712;9.680;2023-08-24T13:00:15;28.30;48.30
7876;DHT22;69649;53.712;9.680;2023-08-24T13:02:41;28.50;48.30
7876;DHT22;69649;53.712;9.680;2023-08-24T13:05:07;28.30;50.90
7876;DHT22;69649;53.712;9.680;2023-08-24T13:07:33;28.30;50.90
7876;DHT22;69649;53.712;9.680;2023-08-24T13:09:59;28.50;51.40
7876;DHT22;69649;53.712;9.680;2023-08-24T13:12:25;28.60;50.10
7876;DHT22;69649;53.712;9.680;2023-08-24T13:14:51;28.80;49.30
7876;DHT22;69649;53.712;9.680;2023-08-24T13:17:17;28.90;50.40
7876;DHT22;69649;53.712;9.680;2023-08-24T13:19:43;28.90;47.90
7876;DHT22;69649;53.712;9.680;2023-08-24T13:22:10;29.10;48.60
7876;DHT22;69649;53.712;9.680;2023-08-24T13:24:36;29.20;49.80
7876;DHT22;69649;53.712;9.680;2023-08-24T13:27:04;29.30;49.60
7876;DHT22;69649;53.712;9.680;2023-08-24T13:29:32;29.20;48.00
7876;DHT22;69649;53.712;9.680;2023-08-24T13:31:57;29.10;48.60
7876;DHT22;69649;53.712;9.680;2023-08-24T13:34:23;29.30;50.10
7876;DHT22;69649;53.712;9.680;2023-08-24T13:36:49;29.40;49.70
7876;DHT22;69649;53.712;9.680;2023-08-24T13:39:15;29.40;49.00
7876;DHT22;69649;53.712;9.680;2023-08-24T13:41:40;29.50;48.90
7876;DHT22;69649;53.712;9.680;2023-08-24T13:44:06;29.60;48.50
7876;DHT22;69649;53.712;9.680;2023-08-24T13:46:32;29.80;48.70
7876;DHT22;69649;53.712;9.680;2023-08-24T13:48:58;30.00;48.40
7876;DHT22;69649;53.712;9.680;2023-08-24T13:51:24;30.30;47.60
7876;DHT22;69649;53.712;9.680;2023-08-24T13:53:49;30.00;47.40
7876;DHT22;69649;53.712;9.680;2023-08-24T13:56:15;30.10;48.00
7876;DHT22;69649;53.712;9.680;2023-08-24T13:58:41;30.00;48.40
7876;DHT22;69649;53.712;9.680;2023-08-24T14:01:06;29.70;48.60
7876;DHT22;69649;53.712;9.680;2023-08-24T14:03:33;30.00;49.30
7876;DHT22;69649;53.712;9.680;2023-08-24T14:06:00;30.10;47.30
7876;DHT22;69649;53.712;9.680;2023-08-24T14:08:26;30.10;47.10
7876;DHT22;69649;53.712;9.680;2023-08-24T14:10:52;30.50;47.20
7876;DHT22;69649;53.712;9.680;2023-08-24T14:13:18;30.60;46.80
7876;DHT22;69649;53.712;9.680;2023-08-24T14:15:44;30.90;47.90
7876;DHT22;69649;53.712;9.680;2023-08-24T14:18:11;31.10;46.60
7876;DHT22;69649;53.712;9.680;2023-08-24T14:20:38;31.30;47.20
7876;DHT22;69649;53.712;9.680;2023-08-24T14:23:04;31.30;46.80
7876;DHT22;69649;53.712;9.680;2023-08-24T14:25:30;31.20;46.90
7876;DHT22;69649;53.712;9.680;2023-08-24T14:27:55;31.40;46.90
7876;DHT22;69649;53.712;9.680;2023-08-24T14:30:21;31.50;47.30
7876;DHT22;69649;53.712;9.680;2023-08-24T14:32:47;31.50;46.80
7876;DHT22;69649;53.712;9.680;2023-08-24T14:35:13;31.40;46.30
7876;DHT22;69649;53.712;9.680;2023-08-24T14:37:39;31.10;46.70
7876;DHT22;69649;53.712;9.680;2023-08-24T14:40:05;30.90;47.10
7876;DHT22;69649;53.712;9.680;2023-08-24T14:42:31;30.70;46.70
7876;DHT22;69649;53.712;9.680;2023-08-24T14:44:57;30.70;47.30
7876;DHT22;69649;53.712;9.680;2023-08-24T14:47:23;30.90;47.50
7876;DHT22;69649;53.712;9.680;2023-08-24T14:49:49;30.90;47.00
7876;DHT22;69649;53.712;9.680;2023-08-24T14:52:15;30.80;46.60
7876;DHT22;69649;53.712;9.680;2023-08-24T14:54:40;30.80;47.10
7876;DHT22;69649;53.712;9.680;2023-08-24T14:57:06;31.00;46.90
7876;DHT22;69649;53.712;9.680;2023-08-24T14:59:32;31.20;47.20
7876;DHT22;69649;53.712;9.680;2023-08-24T15:01:59;31.50;46.10
7876;DHT22;69649;53.712;9.680;2023-08-24T15:04:26;31.50;46.50
7876;DHT22;69649;53.712;9.680;2023-08-24T15:06:52;31.60;46.30
7876;DHT22;69649;53.712;9.680;2023-08-24T15:09:18;31.50;46.40
7876;DHT22;69649;53.712;9.680;2023-08-24T15:11:44;31.20;46.50
7876;DHT22;69649;53.712;9.680;2023-08-24T15:14:11;31.00;46.90
7876;DHT22;69649;53.712;9.680;2023-08-24T15:16:36;30.50;47.80
7876;DHT22;69649;53.712;9.680;2023-08-24T15:19:02;30.30;48.30
7876;DHT22;69649;53.712;9.680;2023-08-24T15:21:28;30.10;48.40
7876;DHT22;69649;53.712;9.680;2023-08-24T15:23:54;29.90;49.00
7876;DHT22;69649;53.712;9.680;2023-08-24T15:26:20;29.50;49.10
7876;DHT22;69649;53.712;9.680;2023-08-24T15:31:35;29.30;49.90
7876;DHT22;69649;53.712;9.680;2023-08-24T15:34:01;29.10;49.70
7876;DHT22;69649;53.712;9.680;2023-08-24T15:36:27;28.80;50.20
7876;DHT22;69649;53.712;9.680;2023-08-24T15:38:53;28.50;50.80
7876;DHT22;69649;53.712;9.680;2023-08-24T15:41:18;28.30;50.90
7876;DHT22;69649;53.712;9.680;2023-08-24T15:43:44;28.10;52.20
7876;DHT22;69649;53.712;9.680;2023-08-24T15:46:10;28.00;51.70
7876;DHT22;69649;53.712;9.680;2023-08-24T15:48:36;27.80;51.70
7876;DHT22;69649;53.712;9.680;2023-08-24T15:51:03;27.70;52.60
7876;DHT22;69649;53.712;9.680;2023-08-24T15:53:30;27.50;52.50
7876;DHT22;69649;53.712;9.680;2023-08-24T15:55:56;27.50;53.40
7876;DHT22;69649;53.712;9.680;2023-08-24T15:58:22;27.30;53.60
7876;DHT22;69649;53.712;9.680;2023-08-24T16:00:48;27.20;53.80
7876;DHT22;69649;53.712;9.680;2023-08-24T16:03:14;27.10;54.30
7876;DHT22;69649;53.712;9.680;2023-08-24T16:05:40;27.00;54.10